sensor_id;sensor_type;location;lat;lon;timestamp;temperature;humidity
48208;DHT22;33997;53.278;9.708;2022-08-27T00:00:27;19.10;92.20
48208;DHT22;33997;53.278;9.708;2022-08-27T00:02:53;19.10;92.10
48208;DHT22;33997;53.278;9.708;2022-08-27T00:05:19;19.20;92.00
48208;DHT22;33997;53.278;9.708;2022-08-27T00:07:47;19.20;91.90
48208;DHT22;33997;53.278;9.708;2022-08-27T00:10:22;19.20;91.90
48208;DHT22;33997;53.278;9.708;2022-08-27T00:12:49;19.20;91.90
48208;DHT22;33997;53.278;9.708;2022-08-27T00:15:16;19.20;91.80
48208;DHT22;33997;53.278;9.708;2022-08-27T00:17:42;19.20;91.70
48208;DHT22;33997;53.278;9.708;2022-08-27T00:20:10;19.20;91.80
48208;DHT22;33997;53.278;9.708;2022-08-27T00:22:36;19.20;91.80
48208;DHT22;33997;53.278;9.708;2022-08-27T00:25:03;19.10;91.80
48208;DHT22;33997;53.278;9.708;2022-08-27T00:27:29;19.10;91.90
48208;DHT22;33997;53.278;9.708;2022-08-27T00:29:54;19.10;91.80
48208;DHT22;33997;53.278;9.708;2022-08-27T00:32:20;19.20;91.80
48208;DHT22;33997;53.278;9.708;2022-08-27T00:34:45;19.10;91.90
48208;DHT22;33997;53.278;9.708;2022-08-27T00:37:11;19.10;91.90
48208;DHT22;33997;53.278;9.708;2022-08-27T00:39:36;19.10;91.90
48208;DHT22;33997;53.278;9.708;2022-08-27T00:42:04;19.10;91.80
48208;DHT22;33997;53.278;9.708;2022-08-27T00:44:30;19.20;91.70
48208;DHT22;33997;53.278;9.708;2022-08-27T00:47:02;19.20;91.50
48208;DHT22;33997;53.278;9.708;2022-08-27T00:52:15;19.10;91.30
48208;DHT22;33997;53.278;9.708;2022-08-27T00:54:42;19.10;91.40
48208;DHT22;33997;53.278;9.708;2022-08-27T00:57:07;19.10;91.60
48208;DHT22;33997;53.278;9.708;2022-08-27T00:59:33;19.10;91.40
48208;DHT22;33997;53.278;9.708;2022-08-27T01:01:59;19.10;91.30
48208;DHT22;33997;53.278;9.708;2022-08-27T01:04:46;19.10;91.30
48208;DHT22;33997;53.278;9.708;2022-08-27T01:07:12;19.20;91.20
48208;DHT22;33997;53.278;9.708;2022-08-27T01:09:39;19.20;91.00
48208;DHT22;33997;53.278;9.708;2022-08-27T01:12:06;19.10;90.90
48208;DHT22;33997;53.278;9.708;2022-08-27T01:14:32;19.20;91.10
48208;DHT22;33997;53.278;9.708;2022-08-27T01:16:59;19.10;91.00
48208;DHT22;33997;53.278;9.708;2022-08-27T01:19:33;19.10;91.00
48208;DHT22;33997;53.278;9.708;2022-08-27T01:22:06;19.00;90.90
48208;DHT22;33997;53.278;9.708;2022-08-27T01:24:37;19.00;91.00
48208;DHT22;33997;53.278;9.708;2022-08-27T01:27:05;19.00;91.00
48208;DHT22;33997;53.278;9.708;2022-08-27T01:29:33;19.00;91.10
48208;DHT22;33997;53.278;9.708;2022-08-27T01:32:06;19.00;91.10
48208;DHT22;33997;53.278;9.708;2022-08-27T01:34:32;19.00;91.10
48208;DHT22;33997;53.278;9.708;2022-08-27T01:36:57;18.90;91.20
48208;DHT22;33997;53.278;9.708;2022-08-27T01:39:23;18.90;91.10
48208;DHT22;33997;53.278;9.708;2022-08-27T01:41:49;18.80;91.30
48208;DHT22;33997;53.278;9.708;2022-08-27T01:44:15;18.80;91.60
48208;DHT22;33997;53.278;9.708;2022-08-27T01:46:40;18.80;91.50
48208;DHT22;33997;53.278;9.708;2022-08-27T01:49:08;18.70;91.60
48208;DHT22;33997;53.278;9.708;2022-08-27T01:51:33;18.70;91.70
48208;DHT22;33997;53.278;9.708;2022-08-27T01:53:59;18.70;91.90
48208;DHT22;33997;53.278;9.708;2022-08-27T01:56:24;18.60;91.90
48208;DHT22;33997;53.278;9.708;2022-08-27T01:58:50;18.70;91.70
48208;DHT22;33997;53.278;9.708;2022-08-27T02:01:16;18.70;91.60
48208;DHT22;33997;53.278;9.708;2022-08-27T02:03:41;18.70;91.70
48208;DHT22;33997;53.278;9.708;2022-08-27T02:06:10;18.70;91.50
48208;DHT22;33997;53.278;9.708;2022-08-27T02:08:36;18.70;91.50
48208;DHT22;33997;53.278;9.708;2022-08-27T02:11:02;18.60;91.70
48208;DHT22;33997;53.278;9.708;2022-08-27T02:13:28;18.60;91.90
48208;DHT22;33997;53.278;9.708;2022-08-27T02:15:54;18.60;92.10
48208;DHT22;33997;53.278;9.708;2022-08-27T02:18:19;18.60;92.00
48208;DHT22;33997;53.278;9.708;2022-08-27T02:20:46;18.50;92.10
48208;DHT22;33997;53.278;9.708;2022-08-27T02:23:12;18.50;92.40
48208;DHT22;33997;53.278;9.708;2022-08-27T02:25:38;18.50;92.40
48208;DHT22;33997;53.278;9.708;2022-08-27T02:28:05;18.50;92.40
48208;DHT22;33997;53.278;9.708;2022-08-27T02:30:32;18.50;92.60
48208;DHT22;33997;53.278;9.708;2022-08-27T02:33:02;18.50;92.60
48208;DHT22;33997;53.278;9.708;2022-08-27T02:35:29;18.50;92.50
48208;DHT22;33997;53.278;9.708;2022-08-27T02:37:55;18.50;92.70
48208;DHT22;33997;53.278;9.708;2022-08-27T02:40:23;18.50;92.70
48208;DHT22;33997;53.278;9.708;2022-08-27T02:42:49;18.50;92.70
48208;DHT22;33997;53.278;9.708;2022-08-27T02:45:15;18.50;92.80
48208;DHT22;33997;53.278;9.708;2022-08-27T02:47:41;18.50;92.60
48208;DHT22;33997;53.278;9.708;2022-08-27T02:50:08;18.50;92.70
48208;DHT22;33997;53.278;9.708;2022-08-27T02:52:33;18.50;92.60
48208;DHT22;33997;53.278;9.708;2022-08-27T02:54:59;18.40;92.90
48208;DHT22;33997;53.278;9.708;2022-08-27T02:57:25;18.50;92.80
48208;DHT22;33997;53.278;9.708;2022-08-27T02:59:52;18.50;92.70
48208;DHT22;33997;53.278;9.708;2022-08-27T03:02:19;18.50;92.60
48208;DHT22;33997;53.278;9.708;2022-08-27T03:04:45;18.50;92.50
48208;DHT22;33997;53.278;9.708;2022-08-27T03:07:12;18.50;92.40
48208;DHT22;33997;53.278;9.708;2022-08-27T03:09:37;18.60;92.30
48208;DHT22;33997;53.278;9.708;2022-08-27T03:12:03;18.50;92.40
48208;DHT22;33997;53.278;9.708;2022-08-27T03:14:29;18.50;92.40
48208;DHT22;33997;53.278;9.708;2022-08-27T03:16:55;18.60;92.30
48208;DHT22;33997;53.278;9.708;2022-08-27T03:19:41;18.50;92.40
48208;DHT22;33997;53.278;9.708;2022-08-27T03:22:06;18.60;92.30
48208;DHT22;33997;53.278;9.708;2022-08-27T03:24:32;18.60;92.20
48208;DHT22;33997;53.278;9.708;2022-08-27T03:26:58;18.60;92.00
48208;DHT22;33997;53.278;9.708;2022-08-27T03:29:24;18.60;92.20
48208;DHT22;33997;53.278;9.708;2022-08-27T03:31:49;18.60;92.10
48208;DHT22;33997;53.278;9.708;2022-08-27T03:34:14;18.60;92.10
48208;DHT22;33997;53.278;9.708;2022-08-27T03:36:40;18.70;92.30
48208;DHT22;33997;53.278;9.708;2022-08-27T03:39:05;18.70;92.10
48208;DHT22;33997;53.278;9.708;2022-08-27T03:41:31;18.60;92.20
48208;DHT22;33997;53.278;9.708;2022-08-27T03:43:56;18.60;92.30
48208;DHT22;33997;53.278;9.708;2022-08-27T03:46:22;18.60;92.20
48208;DHT22;33997;53.278;9.708;2022-08-27T03:48:47;18.60;92.30
48208;DHT22;33997;53.278;9.708;2022-08-27T03:51:14;18.60;92.40
48208;DHT22;33997;53.278;9.708;2022-08-27T03:53:41;18.60;92.30
48208;DHT22;33997;53.278;9.708;2022-08-27T03:56:07;18.60;92.40
48208;DHT22;33997;53.278;9.708;2022-08-27T03:58:34;18.60;92.30
48208;DHT22;33997;53.278;9.708;2022-08-27T04:01:00;18.60;92.30
48208;DHT22;33997;53.278;9.708;2022-08-27T04:03:26;18.60;92.30
48208;DHT22;33997;53.278;9.708;2022-08-27T04:05:53;18.60;92.20
48208;DHT22;33997;53.278;9.708;2022-08-27T04:08:18;18.60;92.10
48208;DHT22;33997;53.278;9.708;2022-08-27T04:10:44;18.60;92.20
48208;DHT22;33997;53.278;9.708;2022-08-27T04:13:10;18.50;92.10
48208;DHT22;33997;53.278;9.708;2022-08-27T04:15:36;18.60;92.30
48208;DHT22;33997;53.278;9.708;2022-08-27T04:18:05;18.60;92.10
48208;DHT22;33997;53.278;9.708;2022-08-27T04:20:31;18.60;92.30
48208;DHT22;33997;53.278;9.708;2022-08-27T04:22:57;18.60;92.20
48208;DHT22;33997;53.278;9.708;2022-08-27T04:25:22;18.50;92.20
48208;DHT22;33997;53.278;9.708;2022-08-27T04:27:48;18.50;92.10
48208;DHT22;33997;53.278;9.708;2022-08-27T04:30:14;18.50;92.10
48208;DHT22;33997;53.278;9.708;2022-08-27T04:32:40;18.50;92.20
48208;DHT22;33997;53.278;9.708;2022-08-27T04:35:05;18.60;92.20
48208;DHT22;33997;53.278;9.708;2022-08-27T04:37:32;18.50;92.10
48208;DHT22;33997;53.278;9.708;2022-08-27T04:39:58;18.50;92.10
48208;DHT22;33997;53.278;9.708;2022-08-27T04:42:24;18.50;91.80
48208;DHT22;33997;53.278;9.708;2022-08-27T04:44:49;18.60;92.10
48208;DHT22;33997;53.278;9.708;2022-08-27T04:47:17;18.50;92.00
48208;DHT22;33997;53.278;9.708;2022-08-27T04:49:42;18.50;92.20
48208;DHT22;33997;53.278;9.708;2022-08-27T04:52:08;18.50;92.00
48208;DHT22;33997;53.278;9.708;2022-08-27T04:54:34;18.60;92.10
48208;DHT22;33997;53.278;9.708;2022-08-27T04:57:01;18.60;91.80
48208;DHT22;33997;53.278;9.708;2022-08-27T04:59:27;18.60;92.00
48208;DHT22;33997;53.278;9.708;2022-08-27T05:01:53;18.50;91.90
48208;DHT22;33997;53.278;9.708;2022-08-27T05:04:18;18.50;91.90
48208;DHT22;33997;53.278;9.708;2022-08-27T05:06:44;18.50;92.10
48208;DHT22;33997;53.278;9.708;2022-08-27T05:09:12;18.50;91.90
48208;DHT22;33997;53.278;9.708;2022-08-27T05:11:37;18.50;91.90
48208;DHT22;33997;53.278;9.708;2022-08-27T05:14:06;18.50;92.00
48208;DHT22;33997;53.278;9.708;2022-08-27T05:16:32;18.50;92.10
48208;DHT22;33997;53.278;9.708;2022-08-27T05:19:00;18.50;91.90
48208;DHT22;33997;53.278;9.708;2022-08-27T05:21:30;18.50;92.10
48208;DHT22;33997;53.278;9.708;2022-08-27T05:23:57;18.50;92.10
48208;DHT22;33997;53.278;9.708;2022-08-27T05:26:24;18.50;92.10
48208;DHT22;33997;53.278;9.708;2022-08-27T05:28:50;18.50;91.90
48208;DHT22;33997;53.278;9.708;2022-08-27T05:31:16;18.50;91.80
48208;DHT22;33997;53.278;9.708;2022-08-27T05:33:42;18.50;92.00
48208;DHT22;33997;53.278;9.708;2022-08-27T05:36:15;18.50;91.90
48208;DHT22;33997;53.278;9.708;2022-08-27T05:38:41;18.50;91.70
48208;DHT22;33997;53.278;9.708;2022-08-27T05:41:10;18.50;91.50
48208;DHT22;33997;53.278;9.708;2022-08-27T05:43:38;18.50;91.70
48208;DHT22;33997;53.278;9.708;2022-08-27T05:46:10;18.50;91.50
48208;DHT22;33997;53.278;9.708;2022-08-27T05:48:37;18.50;91.40
48208;DHT22;33997;53.278;9.708;2022-08-27T05:51:14;18.50;91.40
48208;DHT22;33997;53.278;9.708;2022-08-27T05:53:40;18.60;91.30
48208;DHT22;33997;53.278;9.708;2022-08-27T05:56:15;18.60;90.90
48208;DHT22;33997;53.278;9.708;2022-08-27T05:58:41;18.60;90.40
48208;DHT22;33997;53.278;9.708;2022-08-27T06:01:25;18.70;90.10
48208;DHT22;33997;53.278;9.708;2022-08-27T06:03:51;18.70;90.00
48208;DHT22;33997;53.278;9.708;2022-08-27T06:06:19;18.70;89.90
48208;DHT22;33997;53.278;9.708;2022-08-27T06:08:45;18.70;89.60
48208;DHT22;33997;53.278;9.708;2022-08-27T06:11:10;18.70;89.80
48208;DHT22;33997;53.278;9.708;2022-08-27T06:13:36;18.70;89.50
48208;DHT22;33997;53.278;9.708;2022-08-27T06:16:10;18.70;89.40
48208;DHT22;33997;53.278;9.708;2022-08-27T06:18:39;18.70;89.10
48208;DHT22;33997;53.278;9.708;2022-08-27T06:21:05;18.70;89.10
48208;DHT22;33997;53.278;9.708;2022-08-27T06:23:32;18.60;89.30
48208;DHT22;33997;53.278;9.708;2022-08-27T06:25:58;18.70;89.40
48208;DHT22;33997;53.278;9.708;2022-08-27T06:28:26;18.60;89.30
48208;DHT22;33997;53.278;9.708;2022-08-27T06:31:05;18.70;89.40
48208;DHT22;33997;53.278;9.708;2022-08-27T06:33:31;18.60;89.20
48208;DHT22;33997;53.278;9.708;2022-08-27T06:36:01;18.80;89.20
48208;DHT22;33997;53.278;9.708;2022-08-27T06:38:27;18.70;89.30
48208;DHT22;33997;53.278;9.708;2022-08-27T06:40:54;18.70;89.20
48208;DHT22;33997;53.278;9.708;2022-08-27T06:43:21;18.60;89.40
48208;DHT22;33997;53.278;9.708;2022-08-27T06:45:46;18.70;89.20
48208;DHT22;33997;53.278;9.708;2022-08-27T06:48:12;18.80;88.90
48208;DHT22;33997;53.278;9.708;2022-08-27T06:50:38;18.80;88.70
48208;DHT22;33997;53.278;9.708;2022-08-27T06:53:05;18.90;88.80
48208;DHT22;33997;53.278;9.708;2022-08-27T06:55:30;18.80;88.20
48208;DHT22;33997;53.278;9.708;2022-08-27T06:57:56;18.80;87.80
48208;DHT22;33997;53.278;9.708;2022-08-27T07:00:21;18.90;87.60
48208;DHT22;33997;53.278;9.708;2022-08-27T07:02:47;19.00;87.50
48208;DHT22;33997;53.278;9.708;2022-08-27T07:05:14;19.00;87.30
48208;DHT22;33997;53.278;9.708;2022-08-27T07:07:40;19.00;86.80
48208;DHT22;33997;53.278;9.708;2022-08-27T07:10:05;18.90;86.80
48208;DHT22;33997;53.278;9.708;2022-08-27T07:12:31;19.00;86.90
48208;DHT22;33997;53.278;9.708;2022-08-27T07:14:57;19.00;86.50
48208;DHT22;33997;53.278;9.708;2022-08-27T07:17:22;19.00;86.60
48208;DHT22;33997;53.278;9.708;2022-08-27T07:19:48;19.00;86.80
48208;DHT22;33997;53.278;9.708;2022-08-27T07:22:13;19.00;86.80
48208;DHT22;33997;53.278;9.708;2022-08-27T07:24:39;19.10;86.90
48208;DHT22;33997;53.278;9.708;2022-08-27T07:27:05;19.00;86.80
48208;DHT22;33997;53.278;9.708;2022-08-27T07:29:31;19.00;87.10
48208;DHT22;33997;53.278;9.708;2022-08-27T07:31:57;19.10;87.00
48208;DHT22;33997;53.278;9.708;2022-08-27T07:34:22;19.30;86.70
48208;DHT22;33997;53.278;9.708;2022-08-27T07:36:48;19.20;86.50
48208;DHT22;33997;53.278;9.708;2022-08-27T07:39:15;19.30;86.10
48208;DHT22;33997;53.278;9.708;2022-08-27T07:41:41;19.30;85.40
48208;DHT22;33997;53.278;9.708;2022-08-27T07:44:26;19.20;85.60
48208;DHT22;33997;53.278;9.708;2022-08-27T07:46:55;19.30;85.40
48208;DHT22;33997;53.278;9.708;2022-08-27T07:49:23;19.20;85.40
48208;DHT22;33997;53.278;9.708;2022-08-27T07:51:49;19.10;85.00
48208;DHT22;33997;53.278;9.708;2022-08-27T07:54:15;19.20;85.40
48208;DHT22;33997;53.278;9.708;2022-08-27T07:56:41;19.10;86.00
48208;DHT22;33997;53.278;9.708;2022-08-27T07:59:08;19.00;86.50
48208;DHT22;33997;53.278;9.708;2022-08-27T08:01:33;19.00;86.20
48208;DHT22;33997;53.278;9.708;2022-08-27T08:03:59;18.90;86.40
48208;DHT22;33997;53.278;9.708;2022-08-27T08:06:25;18.90;86.50
48208;DHT22;33997;53.278;9.708;2022-08-27T08:08:50;18.90;86.80
48208;DHT22;33997;53.278;9.708;2022-08-27T08:11:17;18.80;86.70
48208;DHT22;33997;53.278;9.708;2022-08-27T08:13:44;18.90;87.00
48208;DHT22;33997;53.278;9.708;2022-08-27T08:16:10;18.90;86.60
48208;DHT22;33997;53.278;9.708;2022-08-27T08:18:36;18.80;86.60
48208;DHT22;33997;53.278;9.708;2022-08-27T08:21:06;18.90;86.90
48208;DHT22;33997;53.278;9.708;2022-08-27T08:23:32;19.00;86.60
48208;DHT22;33997;53.278;9.708;2022-08-27T08:25:58;19.10;85.80
48208;DHT22;33997;53.278;9.708;2022-08-27T08:28:24;19.20;85.20
48208;DHT22;33997;53.278;9.708;2022-08-27T08:30:51;19.40;84.70
48208;DHT22;33997;53.278;9.708;2022-08-27T08:33:17;19.40;84.00
48208;DHT22;33997;53.278;9.708;2022-08-27T08:35:43;19.40;84.00
48208;DHT22;33997;53.278;9.708;2022-08-27T08:38:08;19.20;84.10
48208;DHT22;33997;53.278;9.708;2022-08-27T08:40:40;19.30;83.80
48208;DHT22;33997;53.278;9.708;2022-08-27T08:43:40;19.50;83.60
48208;DHT22;33997;53.278;9.708;2022-08-27T08:46:28;19.50;83.40
48208;DHT22;33997;53.278;9.708;2022-08-27T08:49:00;19.50;83.80
48208;DHT22;33997;53.278;9.708;2022-08-27T08:51:35;19.40;83.60
48208;DHT22;33997;53.278;9.708;2022-08-27T08:54:08;19.40;83.80
48208;DHT22;33997;53.278;9.708;2022-08-27T08:56:54;19.30;83.90
48208;DHT22;33997;53.278;9.708;2022-08-27T09:01:50;19.10;84.10
48208;DHT22;33997;53.278;9.708;2022-08-27T09:04:16;19.10;83.90
48208;DHT22;33997;53.278;9.708;2022-08-27T09:07:03;19.10;84.00
48208;DHT22;33997;53.278;9.708;2022-08-27T09:12:22;19.20;83.10
48208;DHT22;33997;53.278;9.708;2022-08-27T09:15:16;19.30;82.50
48208;DHT22;33997;53.278;9.708;2022-08-27T09:17:43;19.20;82.30
48208;DHT22;33997;53.278;9.708;2022-08-27T09:20:11;19.30;82.00
48208;DHT22;33997;53.278;9.708;2022-08-27T09:23:13;19.50;81.90
48208;DHT22;33997;53.278;9.708;2022-08-27T09:25:34;19.40;81.40
48208;DHT22;33997;53.278;9.708;2022-08-27T09:28:05;19.50;81.10
48208;DHT22;33997;53.278;9.708;2022-08-27T09:30:41;19.40;81.60
48208;DHT22;33997;53.278;9.708;2022-08-27T09:33:07;19.40;82.10
48208;DHT22;33997;53.278;9.708;2022-08-27T09:35:40;19.50;81.40
48208;DHT22;33997;53.278;9.708;2022-08-27T09:38:07;19.50;80.90
48208;DHT22;33997;53.278;9.708;2022-08-27T09:40:47;19.70;80.70
48208;DHT22;33997;53.278;9.708;2022-08-27T09:45:50;19.90;80.10
48208;DHT22;33997;53.278;9.708;2022-08-27T09:48:27;20.20;79.70
48208;DHT22;33997;53.278;9.708;2022-08-27T09:50:56;20.40;79.40
48208;DHT22;33997;53.278;9.708;2022-08-27T09:56:05;20.20;79.90
48208;DHT22;33997;53.278;9.708;2022-08-27T10:01:20;20.70;79.90
48208;DHT22;33997;53.278;9.708;2022-08-27T10:03:47;20.80;79.10
48208;DHT22;33997;53.278;9.708;2022-08-27T10:06:24;20.50;79.50
48208;DHT22;33997;53.278;9.708;2022-08-27T10:08:51;20.40;80.00
48208;DHT22;33997;53.278;9.708;2022-08-27T10:11:29;20.30;80.80
48208;DHT22;33997;53.278;9.708;2022-08-27T10:14:08;20.10;80.80
48208;DHT22;33997;53.278;9.708;2022-08-27T10:16:56;20.00;81.00
48208;DHT22;33997;53.278;9.708;2022-08-27T10:19:37;20.00;81.40
48208;DHT22;33997;53.278;9.708;2022-08-27T10:22:31;19.90;81.90
48208;DHT22;33997;53.278;9.708;2022-08-27T10:25:21;19.70;82.00
48208;DHT22;33997;53.278;9.708;2022-08-27T10:31:03;19.50;82.50
48208;DHT22;33997;53.278;9.708;2022-08-27T10:33:57;19.60;82.60
48208;DHT22;33997;53.278;9.708;2022-08-27T10:36:45;19.70;82.20
48208;DHT22;33997;53.278;9.708;2022-08-27T10:39:39;19.90;81.10
48208;DHT22;33997;53.278;9.708;2022-08-27T10:45:07;20.00;80.20
48208;DHT22;33997;53.278;9.708;2022-08-27T10:50:29;20.00;79.50
48208;DHT22;33997;53.278;9.708;2022-08-27T10:53:09;20.40;79.00
48208;DHT22;33997;53.278;9.708;2022-08-27T10:55:45;20.30;78.60
48208;DHT22;33997;53.278;9.708;2022-08-27T11:05:48;20.30;78.00
48208;DHT22;33997;53.278;9.708;2022-08-27T11:10:47;20.50;78.20
48208;DHT22;33997;53.278;9.708;2022-08-27T11:13:32;20.50;77.60
48208;DHT22;33997;53.278;9.708;2022-08-27T11:16:01;20.50;77.60
48208;DHT22;33997;53.278;9.708;2022-08-27T11:18:49;20.60;77.00
48208;DHT22;33997;53.278;9.708;2022-08-27T11:21:24;20.50;77.20
48208;DHT22;33997;53.278;9.708;2022-08-27T11:24:02;20.50;77.60
48208;DHT22;33997;53.278;9.708;2022-08-27T11:26:32;20.40;77.20
48208;DHT22;33997;53.278;9.708;2022-08-27T11:29:00;20.50;77.00
48208;DHT22;33997;53.278;9.708;2022-08-27T11:31:32;20.60;76.90
48208;DHT22;33997;53.278;9.708;2022-08-27T11:45:06;21.00;74.60
48208;DHT22;33997;53.278;9.708;2022-08-27T11:47:32;21.20;74.50
48208;DHT22;33997;53.278;9.708;2022-08-27T11:50:00;21.50;74.80
48208;DHT22;33997;53.278;9.708;2022-08-27T11:52:30;21.70;74.00
48208;DHT22;33997;53.278;9.708;2022-08-27T11:55:12;21.90;73.00
48208;DHT22;33997;53.278;9.708;2022-08-27T11:57:39;21.70;71.10
48208;DHT22;33997;53.278;9.708;2022-08-27T12:00:23;21.60;71.30
48208;DHT22;33997;53.278;9.708;2022-08-27T12:03:00;21.90;71.50
48208;DHT22;33997;53.278;9.708;2022-08-27T12:11:00;22.00;69.00
48208;DHT22;33997;53.278;9.708;2022-08-27T12:13:31;22.30;68.60
48208;DHT22;33997;53.278;9.708;2022-08-27T12:16:22;22.50;68.40
48208;DHT22;33997;53.278;9.708;2022-08-27T12:19:04;22.90;66.80
48208;DHT22;33997;53.278;9.708;2022-08-27T12:24:17;22.70;64.30
48208;DHT22;33997;53.278;9.708;2022-08-27T12:27:01;22.70;63.80
48208;DHT22;33997;53.278;9.708;2022-08-27T12:30:03;23.00;63.80
48208;DHT22;33997;53.278;9.708;2022-08-27T12:32:37;22.90;63.00
48208;DHT22;33997;53.278;9.708;2022-08-27T12:37:54;23.00;62.10
48208;DHT22;33997;53.278;9.708;2022-08-27T12:40:38;23.60;60.00
48208;DHT22;33997;53.278;9.708;2022-08-27T12:43:12;23.80;58.60
48208;DHT22;33997;53.278;9.708;2022-08-27T12:45:46;25.00;57.60
48208;DHT22;33997;53.278;9.708;2022-08-27T12:48:13;25.80;57.10
48208;DHT22;33997;53.278;9.708;2022-08-27T12:50:40;26.20;56.00
48208;DHT22;33997;53.278;9.708;2022-08-27T12:53:25;26.40;53.80
48208;DHT22;33997;53.278;9.708;2022-08-27T13:01:43;27.20;50.20
48208;DHT22;33997;53.278;9.708;2022-08-27T13:04:24;27.00;50.40
48208;DHT22;33997;53.278;9.708;2022-08-27T13:06:51;27.80;49.10
48208;DHT22;33997;53.278;9.708;2022-08-27T13:09:26;28.00;48.90
48208;DHT22;33997;53.278;9.708;2022-08-27T13:11:52;27.40;47.80
48208;DHT22;33997;53.278;9.708;2022-08-27T13:14:22;27.00;48.10
48208;DHT22;33997;53.278;9.708;2022-08-27T13:16:56;26.30;49.50
48208;DHT22;33997;53.278;9.708;2022-08-27T13:19:27;26.70;49.40
48208;DHT22;33997;53.278;9.708;2022-08-27T13:21:54;27.60;47.40
48208;DHT22;33997;53.278;9.708;2022-08-27T13:24:34;27.80;46.90
48208;DHT22;33997;53.278;9.708;2022-08-27T13:27:02;28.00;47.20
48208;DHT22;33997;53.278;9.708;2022-08-27T13:29:28;27.40;46.30
48208;DHT22;33997;53.278;9.708;2022-08-27T13:31:55;27.60;46.40
48208;DHT22;33997;53.278;9.708;2022-08-27T13:34:24;27.60;46.30
48208;DHT22;33997;53.278;9.708;2022-08-27T13:39:19;27.40;47.80
48208;DHT22;33997;53.278;9.708;2022-08-27T13:41:45;27.10;48.60
48208;DHT22;33997;53.278;9.708;2022-08-27T13:44:14;27.80;48.10
48208;DHT22;33997;53.278;9.708;2022-08-27T13:46:52;28.30;47.50
48208;DHT22;33997;53.278;9.708;2022-08-27T13:49:23;27.70;48.10
48208;DHT22;33997;53.278;9.708;2022-08-27T13:52:05;28.30;47.00
48208;DHT22;33997;53.278;9.708;2022-08-27T13:54:33;29.40;44.80
48208;DHT22;33997;53.278;9.708;2022-08-27T13:57:07;27.80;47.00
48208;DHT22;33997;53.278;9.708;2022-08-27T13:59:38;28.00;47.30
48208;DHT22;33997;53.278;9.708;2022-08-27T14:04:38;27.80;47.00
48208;DHT22;33997;53.278;9.708;2022-08-27T14:07:15;27.60;48.80
48208;DHT22;33997;53.278;9.708;2022-08-27T14:09:48;27.40;47.80
48208;DHT22;33997;53.278;9.708;2022-08-27T14:12:20;28.20;48.60
48208;DHT22;33997;53.278;9.708;2022-08-27T14:14:50;28.20;47.00
48208;DHT22;33997;53.278;9.708;2022-08-27T14:17:25;28.40;46.70
48208;DHT22;33997;53.278;9.708;2022-08-27T14:19:52;27.40;48.20
48208;DHT22;33997;53.278;9.708;2022-08-27T14:22:18;27.50;48.40
48208;DHT22;33997;53.278;9.708;2022-08-27T14:24:43;28.50;48.90
48208;DHT22;33997;53.278;9.708;2022-08-27T14:27:13;28.30;46.90
48208;DHT22;33997;53.278;9.708;2022-08-27T14:29:39;28.50;47.70
48208;DHT22;33997;53.278;9.708;2022-08-27T14:32:05;28.00;47.30
48208;DHT22;33997;53.278;9.708;2022-08-27T14:34:32;28.20;47.20
48208;DHT22;33997;53.278;9.708;2022-08-27T14:36:57;26.80;49.10
48208;DHT22;33997;53.278;9.708;2022-08-27T14:39:23;27.70;48.10
48208;DHT22;33997;53.278;9.708;2022-08-27T14:41:48;27.10;49.30
48208;DHT22;33997;53.278;9.708;2022-08-27T14:44:14;27.20;48.40
48208;DHT22;33997;53.278;9.708;2022-08-27T14:46:39;27.50;48.70
48208;DHT22;33997;53.278;9.708;2022-08-27T14:49:18;27.20;48.40
48208;DHT22;33997;53.278;9.708;2022-08-27T14:51:45;26.30;50.10
48208;DHT22;33997;53.278;9.708;2022-08-27T14:54:12;26.40;50.50
48208;DHT22;33997;53.278;9.708;2022-08-27T14:56:37;26.70;49.90
48208;DHT22;33997;53.278;9.708;2022-08-27T14:59:03;26.20;51.00
48208;DHT22;33997;53.278;9.708;2022-08-27T15:01:29;26.10;51.70
48208;DHT22;33997;53.278;9.708;2022-08-27T15:03:55;27.00;50.30
48208;DHT22;33997;53.278;9.708;2022-08-27T15:06:22;27.30;49.40
48208;DHT22;33997;53.278;9.708;2022-08-27T15:08:48;27.30;49.10
48208;DHT22;33997;53.278;9.708;2022-08-27T15:11:17;27.00;48.20
48208;DHT22;33997;53.278;9.708;2022-08-27T15:13:44;27.00;48.30
48208;DHT22;33997;53.278;9.708;2022-08-27T15:16:13;27.70;47.60
48208;DHT22;33997;53.278;9.708;2022-08-27T15:18:39;27.60;47.00
48208;DHT22;33997;53.278;9.708;2022-08-27T15:21:04;27.90;46.60
48208;DHT22;33997;53.278;9.708;2022-08-27T15:23:30;27.40;47.40
48208;DHT22;33997;53.278;9.708;2022-08-27T15:25:56;26.50;49.30
48208;DHT22;33997;53.278;9.708;2022-08-27T15:28:21;26.50;48.70
48208;DHT22;33997;53.278;9.708;2022-08-27T15:30:47;26.30;50.10
48208;DHT22;33997;53.278;9.708;2022-08-27T15:33:12;26.00;50.70
48208;DHT22;33997;53.278;9.708;2022-08-27T15:35:38;26.40;49.80
48208;DHT22;33997;53.278;9.708;2022-08-27T15:38:03;25.50;51.30
48208;DHT22;33997;53.278;9.708;2022-08-27T15:40:33;25.50;52.20
48208;DHT22;33997;53.278;9.708;2022-08-27T15:43:02;25.50;52.50
48208;DHT22;33997;53.278;9.708;2022-08-27T15:45:29;24.90;52.70
48208;DHT22;33997;53.278;9.708;2022-08-27T15:47:57;24.50;53.70
48208;DHT22;33997;53.278;9.708;2022-08-27T15:50:24;24.00;54.80
48208;DHT22;33997;53.278;9.708;2022-08-27T15:52:52;24.40;54.30
48208;DHT22;33997;53.278;9.708;2022-08-27T15:55:22;24.50;53.80
48208;DHT22;33997;53.278;9.708;2022-08-27T15:57:48;24.40;53.10
48208;DHT22;33997;53.278;9.708;2022-08-27T16:00:15;24.60;53.90
48208;DHT22;33997;53.278;9.708;2022-08-27T16:02:42;24.40;53.90
48208;DHT22;33997;53.278;9.708;2022-08-27T16:05:09;24.60;54.00
48208;DHT22;33997;53.278;9.708;2022-08-27T16:07:34;25.00;52.60
48208;DHT22;33997;53.278;9.708;2022-08-27T16:10:00;25.00;52.30
48208;DHT22;33997;53.278;9.708;2022-08-27T16:12:26;25.10;51.30
48208;DHT22;33997;53.278;9.708;2022-08-27T16:14:51;24.70;52.60
48208;DHT22;33997;53.278;9.708;2022-08-27T16:17:17;24.40;53.30
48208;DHT22;33997;53.278;9.708;2022-08-27T16:19:44;24.70;52.00
48208;DHT22;33997;53.278;9.708;2022-08-27T16:22:10;25.50;50.80
48208;DHT22;33997;53.278;9.708;2022-08-27T16:24:35;25.40;49.80
48208;DHT22;33997;53.278;9.708;2022-08-27T16:27:01;24.60;52.30
48208;DHT22;33997;53.278;9.708;2022-08-27T16:29:26;24.90;52.00
48208;DHT22;33997;53.278;9.708;2022-08-27T16:31:52;25.20;51.70
48208;DHT22;33997;53.278;9.708;2022-08-27T16:34:24;24.80;51.50
48208;DHT22;33997;53.278;9.708;2022-08-27T16:36:50;24.00;52.70
48208;DHT22;33997;53.278;9.708;2022-08-27T16:39:15;24.10;52.40
48208;DHT22;33997;53.278;9.708;2022-08-27T16:41:41;24.20;52.30
48208;DHT22;33997;53.278;9.708;2022-08-27T16:44:06;24.00;52.30
48208;DHT22;33997;53.278;9.708;2022-08-27T16:46:32;23.90;53.40
48208;DHT22;33997;53.278;9.708;2022-08-27T16:48:58;23.70;53.00